createdAt,value
2023-01-28T00:01:38.693Z,95655.50
2023-01-28T00:06:41.008Z,95664.84
2023-01-28T00:11:43.833Z,95668.97
2023-01-28T00:16:46.668Z,95672.81
2023-01-28T00:21:48.883Z,95675.22
2023-01-28T00:26:51.746Z,95673.13
2023-01-28T00:31:54.003Z,95674.97
2023-01-28T00:36:58.818Z,95665.81
2023-01-28T00:42:00.827Z,95690.16
2023-01-28T00:47:02.913Z,95673.22
2023-01-28T00:52:05.327Z,95683.66
2023-01-28T00:57:08.257Z,95689.22
2023-01-28T01:02:13.450Z,95707.00
2023-01-28T01:07:15.778Z,95698.94
2023-01-28T01:12:18.188Z,95685.47
2023-01-28T01:17:22.180Z,95695.38
2023-01-28T01:22:24.580Z,95677.16
2023-01-28T01:27:26.957Z,95696.75
2023-01-28T01:32:35.249Z,95691.56
2023-01-28T01:37:37.982Z,95714.03
2023-01-28T01:42:40.360Z,95704.09
2023-01-28T01:47:55.957Z,95712.06
2023-01-28T01:53:03.387Z,95698.31
2023-01-28T01:58:11.600Z,95710.16
2023-01-28T02:03:17.625Z,95711.41
2023-01-28T02:08:22.728Z,95704.66
2023-01-28T02:13:31.990Z,95700.03
2023-01-28T02:18:36.153Z,95697.31
2023-01-28T02:23:55.334Z,95711.31
2023-01-28T02:29:33.944Z,95717.69
2023-01-28T02:34:50.549Z,95712.25
2023-01-28T02:39:58.590Z,95733.56
2023-01-28T02:45:01.007Z,95718.56
2023-01-28T02:50:10.177Z,95715.03
2023-01-28T02:55:26.001Z,95738.47
2023-01-28T03:00:44.902Z,95730.16
2023-01-28T03:06:05.483Z,95734.72
2023-01-28T03:11:26.108Z,95730.44
2023-01-28T03:16:49.792Z,95716.81
2023-01-28T03:22:11.466Z,95715.78
2023-01-28T03:27:44.452Z,95743.53
2023-01-28T03:33:07.002Z,95744.66
2023-01-28T03:38:21.288Z,95738.72
2023-01-28T03:43:24.528Z,95749.19
2023-01-28T03:48:28.340Z,95741.84
2023-01-28T03:53:31.526Z,95753.03
2023-01-28T03:58:52.131Z,95770.59
2023-01-28T04:03:54.562Z,95758.84
2023-01-28T04:09:01.331Z,95774.09
2023-01-28T04:14:03.595Z,95779.25
2023-01-28T04:19:23.827Z,95785.25
2023-01-28T04:24:26.943Z,95780.19
2023-01-28T04:29:29.478Z,95796.47
2023-01-28T04:34:36.705Z,95789.72
2023-01-28T04:40:02.496Z,95809.38
2023-01-28T04:45:37.118Z,95815.41
2023-01-28T04:50:57.988Z,95816.25
2023-01-28T04:56:20.067Z,95810.66
2023-01-28T05:01:22.558Z,95820.94
2023-01-28T05:06:24.981Z,95831.88
2023-01-28T05:11:30.944Z,95832.75
2023-01-28T05:16:37.055Z,95832.88
2023-01-28T05:21:39.711Z,95839.59
2023-01-28T05:26:49.494Z,95864.00
2023-01-28T05:31:52.297Z,95855.41
2023-01-28T05:36:55.156Z,95841.78
2023-01-28T05:42:15.944Z,95842.81
2023-01-28T05:47:22.006Z,95862.97
2023-01-28T05:52:28.099Z,95853.56
2023-01-28T05:57:31.803Z,95864.00
2023-01-28T06:02:34.353Z,95880.25
2023-01-28T06:07:36.795Z,95887.41
2023-01-28T06:12:40.093Z,95903.00
2023-01-28T06:18:14.781Z,95894.31
2023-01-28T06:23:17.624Z,95897.69
2023-01-28T06:28:19.865Z,95911.59
2023-01-28T06:33:24.762Z,95936.88
2023-01-28T06:38:27.031Z,95937.56
2023-01-28T06:43:30.936Z,95924.59
2023-01-28T06:48:33.191Z,95933.34
2023-01-28T06:53:35.578Z,95937.53
2023-01-28T06:58:37.946Z,95933.50
2023-01-28T07:03:40.072Z,95938.28
2023-01-28T07:08:42.683Z,95949.22
2023-01-28T07:13:45.258Z,95942.78
2023-01-28T07:18:47.679Z,95943.31
2023-01-28T07:23:50.011Z,95957.22
2023-01-28T07:28:52.438Z,95955.88
2023-01-28T07:33:54.577Z,95969.25
2023-01-28T07:38:56.721Z,95970.84
2023-01-28T07:43:59.243Z,95971.06
2023-01-28T07:49:01.601Z,95957.06
2023-01-28T07:54:03.766Z,95974.81
2023-01-28T07:59:06.070Z,95969.94
2023-01-28T08:04:08.379Z,95982.31
2023-01-28T08:09:11.136Z,95976.38
2023-01-28T08:14:13.558Z,95968.75
2023-01-28T08:19:16.473Z,95981.13
2023-01-28T08:24:18.673Z,96000.63
2023-01-28T08:29:21.127Z,95997.16
2023-01-28T08:34:23.444Z,95988.72
2023-01-28T08:39:25.528Z,95992.97
2023-01-28T08:44:27.675Z,96005.63
2023-01-28T08:49:30.054Z,95999.88
2023-01-28T08:54:33.696Z,96007.44
2023-01-28T08:59:36.130Z,96001.09
2023-01-28T09:04:38.289Z,96001.84
2023-01-28T09:09:40.465Z,95987.97
2023-01-28T09:14:42.737Z,95991.41
2023-01-28T09:19:44.932Z,95990.22
2023-01-28T09:24:47.127Z,95979.66
2023-01-28T09:29:49.395Z,95985.38
2023-01-28T09:34:51.781Z,95982.69
2023-01-28T09:39:54.032Z,95985.03
2023-01-28T09:45:09.822Z,95985.84
2023-01-28T09:50:31.861Z,95967.16
2023-01-28T09:55:41.872Z,95961.25
2023-01-28T10:00:47.043Z,95978.56
2023-01-28T10:06:07.929Z,95985.91
2023-01-28T10:11:52.549Z,95978.75
2023-01-28T10:17:07.611Z,95961.84
2023-01-28T10:22:44.753Z,95978.28
2023-01-28T10:27:49.621Z,95936.63
2023-01-28T10:33:04.524Z,95960.03
2023-01-28T10:38:09.811Z,95981.38
2023-01-28T10:43:12.132Z,95955.81
2023-01-28T10:48:23.340Z,95981.59
2023-01-28T10:53:45.362Z,95986.03
2023-01-28T10:59:19.856Z,95984.63
2023-01-28T11:04:30.558Z,95971.97
2023-01-28T11:09:36.203Z,95968.53
2023-01-28T11:14:38.537Z,95978.44
2023-01-28T11:19:40.788Z,95965.69
2023-01-28T11:24:43.308Z,95973.59
2023-01-28T11:29:45.902Z,95981.09
2023-01-28T11:35:00.988Z,95970.75
2023-01-28T11:40:20.144Z,95977.97
2023-01-28T11:45:40.365Z,95986.03
2023-01-28T11:50:58.736Z,95984.16
2023-01-28T11:56:14.144Z,95981.03
2023-01-28T12:01:31.877Z,95995.63
2023-01-28T12:06:49.658Z,95992.13
2023-01-28T12:12:35.491Z,95972.19
2023-01-28T12:17:55.804Z,95990.81
2023-01-28T12:23:06.859Z,95990.81
2023-01-28T12:28:48.413Z,95967.88
2023-01-28T12:34:20.112Z,95960.19
2023-01-28T12:39:45.642Z,95996.75
2023-01-28T12:44:53.099Z,95994.41
2023-01-28T12:50:04.335Z,95997.38
2023-01-28T12:55:26.763Z,95991.47
2023-01-28T13:00:32.395Z,96013.75
2023-01-28T13:05:40.570Z,96010.50
2023-01-28T13:10:45.183Z,96015.53
2023-01-28T13:15:50.871Z,96029.09
2023-01-28T13:20:55.715Z,96008.84
2023-01-28T13:26:11.991Z,96033.97
2023-01-28T13:31:19.425Z,96041.53
2023-01-28T13:36:31.278Z,96042.47
2023-01-28T13:41:47.963Z,96051.66
2023-01-28T13:46:50.219Z,96051.94
2023-01-28T13:52:26.426Z,96056.63
2023-01-28T13:57:49.768Z,96066.50
2023-01-28T14:03:07.164Z,96063.88
2023-01-28T14:08:47.826Z,96070.47
2023-01-28T14:14:11.741Z,96067.03
2023-01-28T14:19:14.682Z,96058.75
2023-01-28T14:24:19.124Z,96070.63
2023-01-28T14:29:43.172Z,96076.09
2023-01-28T14:34:47.432Z,96078.97
2023-01-28T14:39:57.717Z,96069.56
2023-01-28T14:45:17.664Z,96075.38
2023-01-28T14:50:46.585Z,96080.56
2023-01-28T14:56:00.984Z,96084.09
2023-01-28T15:01:03.384Z,96081.94
2023-01-28T15:06:16.346Z,96065.75
2023-01-28T15:11:23.792Z,96090.88
2023-01-28T15:16:35.487Z,96091.53
2023-01-28T15:21:39.048Z,96097.53
2023-01-28T15:26:47.184Z,96092.91
2023-01-28T15:31:50.025Z,96114.06
2023-01-28T15:36:52.436Z,96096.31
2023-01-28T15:42:05.231Z,96110.41
2023-01-28T15:47:22.326Z,96123.50
2023-01-28T15:52:39.852Z,96123.50
2023-01-28T15:57:42.346Z,96137.44
2023-01-28T16:02:53.357Z,96144.75
2023-01-28T16:07:57.373Z,96154.66
2023-01-28T16:13:22.177Z,96159.16
2023-01-28T16:18:37.654Z,96153.19
2023-01-28T16:23:40.798Z,96161.63
2023-01-28T16:28:43.058Z,96157.44
2023-01-28T16:33:45.521Z,96149.72
2023-01-28T16:38:47.776Z,96151.31
2023-01-28T16:43:50.240Z,96143.16
2023-01-28T16:48:52.457Z,96154.25
2023-01-28T16:53:55.260Z,96179.00
2023-01-28T16:58:58.104Z,96179.97
2023-01-28T17:04:00.364Z,96169.81
2023-01-28T17:09:02.656Z,96192.66
2023-01-28T17:14:04.930Z,96197.09
2023-01-28T17:19:07.339Z,96195.66
2023-01-28T17:24:09.770Z,96169.47
2023-01-28T17:29:11.895Z,96200.97
2023-01-28T17:34:14.227Z,96191.28
2023-01-28T17:39:16.635Z,96202.94
2023-01-28T17:44:20.149Z,96198.34
2023-01-28T17:49:22.426Z,96206.59
2023-01-28T17:54:26.036Z,96191.34
2023-01-28T17:59:28.246Z,96220.25
2023-01-28T18:04:30.398Z,96203.28
2023-01-28T18:09:32.591Z,96219.78
2023-01-28T18:14:35.494Z,96208.47
2023-01-28T18:19:37.642Z,96213.63
2023-01-28T18:24:39.949Z,96217.78
2023-01-28T18:29:42.097Z,96219.78
2023-01-28T18:34:47.408Z,96221.97
2023-01-28T18:39:49.769Z,96214.41
2023-01-28T18:44:52.106Z,96214.41
2023-01-28T18:49:54.293Z,96233.38
2023-01-28T18:54:57.896Z,96215.78
2023-01-28T19:00:00.176Z,96224.53
2023-01-28T19:05:02.566Z,96237.53
2023-01-28T19:10:05.934Z,96242.38
2023-01-28T19:15:08.857Z,96240.50
2023-01-28T19:20:11.942Z,96246.09
2023-01-28T19:25:14.997Z,96230.38
2023-01-28T19:30:17.651Z,96257.59
2023-01-28T19:35:20.714Z,96235.19
2023-01-28T19:40:24.669Z,96239.00
2023-01-28T19:45:26.833Z,96249.94
2023-01-28T19:50:28.974Z,96254.00
2023-01-28T19:55:31.266Z,96259.00
2023-01-28T20:00:35.224Z,96266.47
2023-01-28T20:05:37.798Z,96280.44
2023-01-28T20:10:39.915Z,96269.34
2023-01-28T20:15:42.204Z,96275.25
2023-01-28T20:20:55.373Z,96279.56
2023-01-28T20:26:03.851Z,96271.13
2023-01-28T20:31:09.016Z,96292.88
2023-01-28T20:36:14.100Z,96290.41
2023-01-28T20:41:20.419Z,96289.19
2023-01-28T20:46:26.579Z,96292.41
2023-01-28T20:51:30.987Z,96308.50
2023-01-28T20:56:33.723Z,96296.59
2023-01-28T21:01:37.259Z,96310.06
2023-01-28T21:06:42.706Z,96317.81
2023-01-28T21:11:45.045Z,96316.25
2023-01-28T21:16:47.483Z,96326.47
2023-01-28T21:21:49.723Z,96303.81
2023-01-28T21:26:51.845Z,96334.19
2023-01-28T21:31:54.012Z,96316.44
2023-01-28T21:36:56.669Z,96314.31
2023-01-28T21:41:58.821Z,96333.16
2023-01-28T21:47:00.975Z,96315.25
2023-01-28T21:52:03.266Z,96315.97
2023-01-28T21:57:05.633Z,96332.63
2023-01-28T22:02:12.160Z,96330.13
2023-01-28T22:07:17.636Z,96333.16
2023-01-28T22:12:21.911Z,96329.81
2023-01-28T22:17:24.166Z,96331.97
2023-01-28T22:22:26.392Z,96331.72
2023-01-28T22:27:29.014Z,96310.41
2023-01-28T22:32:31.265Z,96284.66
2023-01-28T22:37:33.410Z,96313.38
2023-01-28T22:42:35.512Z,96310.66
2023-01-28T22:47:37.865Z,96318.22
2023-01-28T22:52:40.144Z,96327.13
2023-01-28T22:57:42.226Z,96307.84
2023-01-28T23:02:44.408Z,96309.84
2023-01-28T23:07:46.816Z,96330.16
2023-01-28T23:13:04.907Z,96313.00
2023-01-28T23:18:50.203Z,96327.38
2023-01-28T23:24:10.842Z,96331.47
2023-01-28T23:29:13.104Z,96315.19
2023-01-28T23:34:17.602Z,96336.41
2023-01-28T23:39:19.942Z,96321.09
2023-01-28T23:44:28.641Z,96323.69
2023-01-28T23:49:30.885Z,96318.75
2023-01-28T23:54:33.493Z,96310.38
2023-01-28T23:59:35.618Z,96328.94
